createdAt,value
2023-04-23T00:01:28.045Z,13.10
2023-04-23T00:03:58.636Z,13.10
2023-04-23T00:06:27.114Z,13.10
2023-04-23T00:08:55.576Z,13.10
2023-04-23T00:11:23.442Z,13.00
2023-04-23T00:13:51.185Z,13.00
2023-04-23T00:16:20.629Z,12.90
2023-04-23T00:18:48.375Z,12.90
2023-04-23T00:21:15.779Z,12.80
2023-04-23T00:23:43.098Z,12.80
2023-04-23T00:26:10.633Z,12.70
2023-04-23T00:28:37.866Z,12.80
2023-04-23T00:31:05.819Z,12.80
2023-04-23T00:33:33.248Z,12.80
2023-04-23T00:36:00.936Z,12.90
2023-04-23T00:38:28.666Z,12.80
2023-04-23T00:40:56.160Z,12.80
2023-04-23T00:43:24.237Z,12.90
2023-04-23T00:45:51.948Z,12.90
2023-04-23T00:48:19.372Z,12.80
2023-04-23T00:50:47.566Z,12.90
2023-04-23T00:53:14.840Z,12.90
2023-04-23T00:55:42.551Z,12.90
2023-04-23T00:58:09.910Z,12.80
2023-04-23T01:00:46.548Z,12.80
2023-04-23T01:03:14.478Z,12.80
2023-04-23T01:05:43.162Z,12.70
2023-04-23T01:08:15.692Z,12.70
2023-04-23T01:10:44.852Z,12.60
2023-04-23T01:13:13.790Z,12.60
2023-04-23T01:15:41.361Z,12.60
2023-04-23T01:18:08.796Z,12.50
2023-04-23T01:20:36.524Z,12.50
2023-04-23T01:23:05.507Z,12.40
2023-04-23T01:25:32.931Z,12.40
2023-04-23T01:28:00.441Z,12.40
2023-04-23T01:30:28.414Z,12.40
2023-04-23T01:32:56.529Z,12.40
2023-04-23T01:35:25.425Z,12.30
2023-04-23T01:37:55.470Z,12.40
2023-04-23T01:40:23.239Z,12.40
2023-04-23T01:42:50.884Z,12.50
2023-04-23T01:45:20.297Z,12.50
2023-04-23T01:47:48.082Z,12.50
2023-04-23T01:50:15.905Z,12.60
2023-04-23T01:52:45.010Z,12.50
2023-04-23T01:55:12.360Z,12.60
2023-04-23T01:57:40.193Z,12.60
2023-04-23T02:00:11.475Z,12.60
2023-04-23T02:02:42.289Z,12.60
2023-04-23T02:05:12.560Z,12.50
2023-04-23T02:07:40.599Z,12.50
2023-04-23T02:10:08.677Z,12.60
2023-04-23T02:12:37.739Z,12.60
2023-04-23T02:15:07.483Z,12.60
2023-04-23T02:17:35.627Z,12.60
2023-04-23T02:20:03.722Z,12.60
2023-04-23T02:22:31.849Z,12.60
2023-04-23T02:25:00.038Z,12.50
2023-04-23T02:27:27.533Z,12.60
2023-04-23T02:29:54.974Z,12.60
2023-04-23T02:32:22.377Z,12.60
2023-04-23T02:34:49.856Z,12.60
2023-04-23T02:37:17.103Z,12.60
2023-04-23T02:39:44.562Z,12.60
2023-04-23T02:42:12.632Z,12.60
2023-04-23T02:44:40.136Z,12.60
2023-04-23T02:47:07.518Z,12.60
2023-04-23T02:49:34.951Z,12.60
2023-04-23T02:52:02.400Z,12.60
2023-04-23T02:54:29.769Z,12.50
2023-04-23T02:56:57.906Z,12.50
2023-04-23T02:59:25.838Z,12.50
2023-04-23T03:01:53.355Z,12.50
2023-04-23T03:04:21.222Z,12.50
2023-04-23T03:06:49.449Z,12.50
2023-04-23T03:09:16.921Z,12.50
2023-04-23T03:11:44.539Z,12.50
2023-04-23T03:14:14.184Z,12.50
2023-04-23T03:16:41.739Z,12.60
2023-04-23T03:19:09.320Z,12.60
2023-04-23T03:21:36.758Z,12.60
2023-04-23T03:24:04.381Z,12.60
2023-04-23T03:26:31.798Z,12.60
2023-04-23T03:28:59.158Z,12.60
2023-04-23T03:31:26.489Z,12.60
2023-04-23T03:33:54.038Z,12.60
2023-04-23T03:36:28.859Z,12.60
2023-04-23T03:38:56.716Z,12.60
2023-04-23T03:41:24.471Z,12.60
2023-04-23T03:43:51.939Z,12.60
2023-04-23T03:46:30.005Z,12.60
2023-04-23T03:48:57.721Z,12.60
2023-04-23T03:51:28.265Z,12.60
2023-04-23T03:53:55.857Z,12.60
2023-04-23T03:56:26.954Z,12.70
2023-04-23T03:59:08.345Z,12.70
2023-04-23T04:01:36.647Z,12.70
2023-04-23T04:04:04.349Z,12.70
2023-04-23T04:06:33.747Z,12.70
2023-04-23T04:09:01.006Z,12.70
2023-04-23T04:11:29.538Z,12.70
2023-04-23T04:13:56.848Z,12.70
2023-04-23T04:16:24.378Z,12.70
2023-04-23T04:18:52.482Z,12.70
2023-04-23T04:21:20.885Z,12.60
2023-04-23T04:23:48.331Z,12.60
2023-04-23T04:26:15.806Z,12.60
2023-04-23T04:28:43.129Z,12.60
2023-04-23T04:31:10.610Z,12.60
2023-04-23T04:33:39.874Z,12.60
2023-04-23T04:36:09.656Z,12.60
2023-04-23T04:38:38.108Z,12.60
2023-04-23T04:41:06.589Z,12.60
2023-04-23T04:43:34.652Z,12.60
2023-04-23T04:46:01.996Z,12.60
2023-04-23T04:48:29.326Z,12.60
2023-04-23T04:50:56.976Z,12.60
2023-04-23T04:53:24.235Z,12.60
2023-04-23T04:55:52.051Z,12.60
2023-04-23T04:58:19.414Z,12.60
2023-04-23T05:00:48.218Z,12.60
2023-04-23T05:03:15.649Z,12.60
2023-04-23T05:05:43.475Z,12.70
2023-04-23T05:08:11.109Z,12.60
2023-04-23T05:10:38.970Z,12.60
2023-04-23T05:13:06.477Z,12.60
2023-04-23T05:15:34.027Z,12.60
2023-04-23T05:18:04.601Z,12.60
2023-04-23T05:20:32.126Z,12.60
2023-04-23T05:22:59.699Z,12.70
2023-04-23T05:25:27.395Z,12.60
2023-04-23T05:27:54.706Z,12.60
2023-04-23T05:30:22.096Z,12.70
2023-04-23T05:32:50.164Z,12.70
2023-04-23T05:35:17.661Z,12.70
2023-04-23T05:37:44.921Z,12.70
2023-04-23T05:40:13.021Z,12.70
2023-04-23T05:42:40.360Z,12.70
2023-04-23T05:45:08.970Z,12.70
2023-04-23T05:47:37.023Z,12.80
2023-04-23T05:50:05.546Z,12.80
2023-04-23T05:52:35.779Z,12.80
2023-04-23T05:55:03.325Z,12.90
2023-04-23T05:57:30.718Z,12.90
2023-04-23T05:59:58.035Z,13.00
2023-04-23T06:02:25.602Z,13.00
2023-04-23T06:04:53.400Z,13.00
2023-04-23T06:07:21.216Z,13.10
2023-04-23T06:09:48.709Z,13.20
2023-04-23T06:12:16.775Z,13.20
2023-04-23T06:14:44.177Z,13.30
2023-04-23T06:17:11.553Z,13.30
2023-04-23T06:19:38.955Z,13.40
2023-04-23T06:22:06.269Z,13.40
2023-04-23T06:24:33.652Z,13.50
2023-04-23T06:27:03.020Z,13.50
2023-04-23T06:29:33.170Z,13.60
2023-04-23T06:32:05.159Z,13.60
2023-04-23T06:34:32.502Z,13.70
2023-04-23T06:36:59.791Z,13.70
2023-04-23T06:39:27.271Z,13.70
2023-04-23T06:41:54.803Z,13.70
2023-04-23T06:44:32.309Z,13.70
2023-04-23T06:46:59.860Z,13.80
2023-04-23T06:49:27.525Z,13.80
2023-04-23T06:51:57.644Z,13.80
2023-04-23T06:54:25.836Z,13.80
2023-04-23T06:56:54.277Z,13.90
2023-04-23T06:59:21.817Z,13.90
2023-04-23T07:01:52.877Z,14.00
2023-04-23T07:04:20.386Z,14.10
2023-04-23T07:06:47.730Z,14.20
2023-04-23T07:09:15.130Z,14.20
2023-04-23T07:11:42.524Z,14.30
2023-04-23T07:14:09.875Z,14.30
2023-04-23T07:16:37.273Z,14.40
2023-04-23T07:19:04.728Z,14.40
2023-04-23T07:21:33.214Z,14.40
2023-04-23T07:24:00.923Z,14.40
2023-04-23T07:26:28.314Z,14.50
2023-04-23T07:28:55.977Z,14.50
2023-04-23T07:31:24.005Z,14.50
2023-04-23T07:33:51.371Z,14.50
2023-04-23T07:36:18.673Z,14.60
2023-04-23T07:38:46.410Z,14.50
2023-04-23T07:41:14.026Z,14.60
2023-04-23T07:43:41.617Z,14.60
2023-04-23T07:46:09.405Z,14.70
2023-04-23T07:48:36.784Z,14.70
2023-04-23T07:51:04.269Z,14.80
2023-04-23T07:53:31.614Z,14.90
2023-04-23T07:55:58.918Z,15.00
2023-04-23T07:58:26.394Z,15.10
2023-04-23T08:00:53.707Z,15.10
2023-04-23T08:03:21.375Z,15.20
2023-04-23T08:05:48.842Z,15.20
2023-04-23T08:08:16.211Z,15.20
2023-04-23T08:10:43.636Z,15.30
2023-04-23T08:13:11.502Z,15.30
2023-04-23T08:15:38.840Z,15.20
2023-04-23T08:18:06.481Z,15.20
2023-04-23T08:20:34.633Z,15.30
2023-04-23T08:23:02.199Z,15.40
2023-04-23T08:25:29.515Z,15.50
2023-04-23T08:27:56.998Z,15.50
2023-04-23T08:30:24.550Z,15.60
2023-04-23T08:32:54.125Z,15.70
2023-04-23T08:35:22.461Z,15.80
2023-04-23T08:37:49.837Z,16.00
2023-04-23T08:40:17.414Z,16.10
2023-04-23T08:42:48.137Z,16.20
2023-04-23T08:45:15.837Z,16.20
2023-04-23T08:47:44.012Z,16.20
2023-04-23T08:50:14.653Z,16.10
2023-04-23T08:52:46.141Z,16.00
2023-04-23T08:55:16.142Z,15.90
2023-04-23T08:57:43.470Z,15.80
2023-04-23T09:00:12.553Z,15.90
2023-04-23T09:02:41.990Z,15.90
2023-04-23T09:05:09.872Z,15.80
2023-04-23T09:07:37.852Z,15.80
2023-04-23T09:10:07.298Z,15.80
2023-04-23T09:12:36.791Z,15.80
2023-04-23T09:15:06.867Z,15.80
2023-04-23T09:17:35.893Z,15.80
2023-04-23T09:20:04.070Z,15.80
2023-04-23T09:22:34.451Z,15.80
2023-04-23T09:25:02.435Z,15.80
2023-04-23T09:27:29.781Z,15.70
2023-04-23T09:29:57.880Z,15.60
2023-04-23T09:32:33.662Z,15.60
2023-04-23T09:35:04.773Z,15.60
2023-04-23T09:37:33.220Z,15.50
2023-04-23T09:40:04.371Z,15.50
2023-04-23T09:42:33.110Z,15.50
2023-04-23T09:45:04.742Z,15.50
2023-04-23T09:47:34.878Z,15.60
2023-04-23T09:50:02.821Z,15.60
2023-04-23T09:52:34.307Z,15.50
2023-04-23T09:55:03.039Z,15.50
2023-04-23T09:57:30.431Z,15.60
2023-04-23T10:00:07.301Z,15.60
2023-04-23T10:02:40.382Z,15.70
2023-04-23T10:05:22.788Z,15.70
2023-04-23T10:07:52.192Z,15.90
2023-04-23T10:10:20.588Z,16.00
2023-04-23T10:12:54.730Z,16.00
2023-04-23T10:15:27.233Z,16.20
2023-04-23T10:17:56.025Z,16.50
2023-04-23T10:20:24.203Z,16.70
2023-04-23T10:22:54.960Z,16.70
2023-04-23T10:25:24.710Z,16.80
2023-04-23T10:27:56.371Z,17.00
2023-04-23T10:30:23.848Z,17.10
2023-04-23T10:32:51.581Z,16.90
2023-04-23T10:35:19.214Z,16.80
2023-04-23T10:37:48.364Z,16.70
2023-04-23T10:40:22.398Z,16.70
2023-04-23T10:42:50.748Z,16.90
2023-04-23T10:45:24.864Z,17.00
2023-04-23T10:47:56.576Z,17.10
2023-04-23T10:50:27.500Z,17.20
2023-04-23T10:52:58.120Z,17.40
2023-04-23T10:55:28.530Z,17.60
2023-04-23T10:58:01.199Z,18.00
2023-04-23T11:00:42.186Z,18.40
2023-04-23T11:03:12.698Z,18.60
2023-04-23T11:05:40.218Z,18.60
2023-04-23T11:08:18.821Z,18.50
2023-04-23T11:10:50.529Z,18.70
2023-04-23T11:13:21.270Z,19.00
2023-04-23T11:15:48.800Z,19.10
2023-04-23T11:18:16.189Z,19.40
2023-04-23T11:20:43.609Z,19.80
2023-04-23T11:23:32.731Z,20.00
2023-04-23T11:26:01.369Z,19.90
2023-04-23T11:28:30.558Z,19.60
2023-04-23T11:30:59.509Z,19.40
2023-04-23T11:33:27.473Z,19.50
2023-04-23T11:35:55.074Z,19.80
2023-04-23T11:38:22.514Z,19.70
2023-04-23T11:40:53.511Z,19.80
2023-04-23T11:43:21.336Z,20.20
2023-04-23T11:45:49.612Z,20.30
2023-04-23T11:48:18.414Z,20.50
2023-04-23T11:50:45.634Z,20.60
2023-04-23T11:53:14.374Z,20.80
2023-04-23T11:55:44.342Z,20.80
2023-04-23T11:58:11.611Z,20.70
2023-04-23T12:00:38.925Z,20.20
2023-04-23T12:03:06.665Z,20.10
2023-04-23T12:05:37.595Z,20.20
2023-04-23T12:08:09.530Z,20.40
2023-04-23T12:10:39.826Z,20.40
2023-04-23T12:13:07.020Z,20.30
2023-04-23T12:15:45.450Z,20.10
2023-04-23T12:18:12.811Z,20.10
2023-04-23T12:20:40.509Z,20.00
2023-04-23T12:23:08.480Z,19.80
2023-04-23T12:25:36.841Z,20.10
2023-04-23T12:28:05.191Z,20.10
2023-04-23T12:30:34.712Z,20.10
2023-04-23T12:33:03.460Z,20.00
2023-04-23T12:35:51.605Z,19.80
2023-04-23T12:38:22.873Z,19.60
2023-04-23T12:40:50.520Z,19.50
2023-04-23T12:43:17.814Z,19.80
2023-04-23T12:45:45.870Z,19.90
2023-04-23T12:48:13.893Z,20.10
2023-04-23T12:50:41.875Z,20.40
2023-04-23T12:53:09.066Z,20.50
2023-04-23T12:55:37.045Z,20.40
2023-04-23T12:58:04.265Z,20.40
2023-04-23T13:00:31.885Z,20.10
2023-04-23T13:02:59.217Z,19.70
2023-04-23T13:05:26.777Z,19.80
2023-04-23T13:07:53.942Z,19.80
2023-04-23T13:10:21.320Z,19.70
2023-04-23T13:12:48.563Z,19.60
2023-04-23T13:15:15.709Z,19.50
2023-04-23T13:17:42.865Z,19.50
2023-04-23T13:20:10.458Z,19.30
2023-04-23T13:22:37.634Z,19.10
2023-04-23T13:25:05.261Z,19.20
2023-04-23T13:27:32.582Z,19.20
2023-04-23T13:29:59.871Z,19.30
2023-04-23T13:32:31.916Z,19.50
2023-04-23T13:35:01.984Z,19.40
2023-04-23T13:37:31.535Z,19.50
2023-04-23T13:39:58.930Z,19.30
2023-04-23T13:42:26.154Z,19.00
2023-04-23T13:44:53.337Z,18.80
2023-04-23T13:47:20.542Z,18.90
2023-04-23T13:49:48.525Z,18.90
2023-04-23T13:52:15.762Z,18.90
2023-04-23T13:54:43.014Z,18.80
2023-04-23T13:57:10.194Z,19.00
2023-04-23T13:59:37.437Z,19.20
2023-04-23T14:02:04.578Z,19.40
2023-04-23T14:04:31.967Z,19.40
2023-04-23T14:06:59.114Z,19.50
2023-04-23T14:09:26.494Z,19.40
2023-04-23T14:11:53.749Z,19.30
2023-04-23T14:14:22.204Z,19.40
2023-04-23T14:16:49.392Z,19.50
2023-04-23T14:19:17.288Z,19.60
2023-04-23T14:21:45.267Z,19.50
2023-04-23T14:24:22.349Z,19.50
2023-04-23T14:26:50.205Z,19.60
2023-04-23T14:29:21.772Z,19.80
2023-04-23T14:31:49.252Z,19.70
2023-04-23T14:34:16.504Z,19.40
2023-04-23T14:36:44.687Z,19.40
2023-04-23T14:39:12.481Z,19.40
2023-04-23T14:41:41.177Z,19.30
2023-04-23T14:44:08.643Z,19.30
2023-04-23T14:46:36.021Z,19.30
2023-04-23T14:49:03.961Z,19.10
2023-04-23T14:51:31.422Z,18.90
2023-04-23T14:53:58.682Z,18.80
2023-04-23T14:56:27.494Z,18.90
2023-04-23T14:58:54.608Z,18.90
2023-04-23T15:01:21.978Z,19.00
2023-04-23T15:03:49.416Z,18.90
2023-04-23T15:06:16.849Z,18.70
2023-04-23T15:08:44.009Z,18.80
2023-04-23T15:11:13.604Z,18.90
2023-04-23T15:13:50.259Z,18.90
2023-04-23T15:16:26.320Z,19.00
2023-04-23T15:19:06.606Z,18.90
2023-04-23T15:21:34.042Z,19.00
2023-04-23T15:24:01.273Z,19.00
2023-04-23T15:26:30.089Z,18.90
2023-04-23T15:28:57.246Z,18.70
2023-04-23T15:31:24.504Z,18.50
2023-04-23T15:33:51.754Z,18.30
2023-04-23T15:36:18.969Z,18.10
2023-04-23T15:38:46.214Z,18.00
2023-04-23T15:41:14.296Z,17.80
2023-04-23T15:43:41.481Z,17.80
2023-04-23T15:46:08.921Z,17.90
2023-04-23T15:48:36.607Z,18.10
2023-04-23T15:51:03.968Z,18.00
2023-04-23T15:53:31.125Z,18.00
2023-04-23T15:55:58.432Z,18.00
2023-04-23T15:58:25.540Z,17.80
2023-04-23T16:00:52.794Z,17.70
2023-04-23T16:03:20.248Z,17.50
2023-04-23T16:05:50.614Z,17.40
2023-04-23T16:08:17.898Z,17.20
2023-04-23T16:10:45.217Z,17.20
2023-04-23T16:13:12.520Z,17.20
2023-04-23T16:15:39.822Z,17.10
2023-04-23T16:18:07.153Z,17.10
2023-04-23T16:20:34.459Z,17.00
2023-04-23T16:23:01.721Z,16.90
2023-04-23T16:25:29.099Z,16.90
2023-04-23T16:27:56.688Z,16.90
2023-04-23T16:30:24.686Z,16.90
2023-04-23T16:32:52.209Z,16.90
2023-04-23T16:35:19.494Z,16.90
2023-04-23T16:37:46.672Z,16.90
2023-04-23T16:40:15.793Z,17.00
2023-04-23T16:42:43.948Z,16.90
2023-04-23T16:45:11.872Z,16.80
2023-04-23T16:47:39.083Z,16.80
2023-04-23T16:50:07.039Z,16.80
2023-04-23T16:52:34.355Z,16.70
2023-04-23T16:55:01.755Z,16.60
2023-04-23T16:57:29.684Z,16.60
2023-04-23T16:59:56.925Z,16.40
2023-04-23T17:02:24.644Z,16.40
2023-04-23T17:04:52.400Z,16.40
2023-04-23T17:07:19.696Z,16.40
2023-04-23T17:09:47.422Z,16.40
2023-04-23T17:12:14.682Z,16.40
2023-04-23T17:14:42.280Z,16.40
2023-04-23T17:17:09.586Z,16.30
2023-04-23T17:19:36.916Z,16.30
2023-04-23T17:22:04.056Z,16.20
2023-04-23T17:24:31.361Z,16.10
2023-04-23T17:26:58.921Z,16.10
2023-04-23T17:29:26.296Z,16.00
2023-04-23T17:31:53.570Z,16.00
2023-04-23T17:34:20.991Z,15.80
2023-04-23T17:36:48.492Z,15.60
2023-04-23T17:39:20.000Z,15.40
2023-04-23T17:41:47.303Z,15.40
2023-04-23T17:44:14.654Z,15.40
2023-04-23T17:46:41.908Z,15.40
2023-04-23T17:49:10.570Z,15.40
2023-04-23T17:51:37.917Z,15.30
2023-04-23T17:54:06.005Z,15.30
2023-04-23T17:56:33.202Z,15.30
2023-04-23T17:59:00.384Z,15.20
2023-04-23T18:01:28.006Z,15.20
2023-04-23T18:03:55.898Z,15.20
2023-04-23T18:06:23.417Z,15.20
2023-04-23T18:08:50.823Z,15.10
2023-04-23T18:11:19.025Z,15.20
2023-04-23T18:13:49.132Z,15.10
2023-04-23T18:16:16.486Z,15.20
2023-04-23T18:18:43.685Z,15.20
2023-04-23T18:21:13.433Z,15.30
2023-04-23T18:23:40.712Z,15.30
2023-04-23T18:26:07.972Z,15.30
2023-04-23T18:28:37.145Z,15.30
2023-04-23T18:31:04.611Z,15.20
2023-04-23T18:33:41.812Z,15.20
2023-04-23T18:36:24.323Z,15.10
2023-04-23T18:38:51.799Z,15.10
2023-04-23T18:41:19.079Z,15.00
2023-04-23T18:43:46.533Z,15.00
2023-04-23T18:46:13.807Z,15.00
2023-04-23T18:49:01.648Z,15.00
2023-04-23T18:51:31.183Z,14.90
2023-04-23T18:53:58.369Z,14.90
2023-04-23T18:56:25.833Z,14.80
2023-04-23T18:58:53.273Z,14.80
2023-04-23T19:01:21.098Z,14.90
2023-04-23T19:03:48.557Z,14.90
2023-04-23T19:06:16.063Z,14.90
2023-04-23T19:08:43.298Z,14.80
2023-04-23T19:11:11.059Z,14.80
2023-04-23T19:13:38.201Z,14.80
2023-04-23T19:16:05.681Z,14.70
2023-04-23T19:18:33.170Z,14.70
2023-04-23T19:21:00.421Z,14.70
2023-04-23T19:23:27.632Z,14.70
2023-04-23T19:25:55.011Z,14.80
2023-04-23T19:28:24.697Z,14.70
2023-04-23T19:30:52.520Z,14.70
2023-04-23T19:33:19.784Z,14.70
2023-04-23T19:35:47.352Z,14.80
2023-04-23T19:38:14.542Z,14.80
2023-04-23T19:40:42.321Z,14.80
2023-04-23T19:43:12.123Z,14.90
2023-04-23T19:45:39.933Z,14.90
2023-04-23T19:48:08.369Z,14.90
2023-04-23T19:50:35.927Z,14.80
2023-04-23T19:53:06.088Z,14.80
2023-04-23T19:55:33.431Z,14.80
2023-04-23T19:58:00.594Z,14.80
2023-04-23T20:00:31.425Z,14.80
2023-04-23T20:02:58.931Z,14.80
2023-04-23T20:05:26.220Z,14.80
2023-04-23T20:07:53.913Z,14.80
2023-04-23T20:10:21.373Z,14.70
2023-04-23T20:12:48.727Z,14.60
2023-04-23T20:15:16.432Z,14.50
2023-04-23T20:17:43.937Z,14.40
2023-04-23T20:20:11.663Z,14.10
2023-04-23T20:22:38.960Z,13.90
2023-04-23T20:25:06.727Z,13.80
2023-04-23T20:27:34.261Z,13.80
2023-04-23T20:30:03.803Z,13.70
2023-04-23T20:32:31.314Z,13.70
2023-04-23T20:35:00.217Z,13.70
2023-04-23T20:37:28.723Z,13.70
2023-04-23T20:39:56.216Z,13.70
2023-04-23T20:42:25.533Z,13.70
2023-04-23T20:44:52.872Z,13.70
2023-04-23T20:47:20.219Z,13.70
2023-04-23T20:49:47.355Z,13.70
2023-04-23T20:52:15.417Z,13.70
2023-04-23T20:54:42.875Z,13.80
2023-04-23T20:57:10.918Z,13.80
2023-04-23T20:59:38.128Z,13.80
2023-04-23T21:02:07.530Z,13.80
2023-04-23T21:04:34.919Z,13.80
2023-04-23T21:07:02.289Z,13.70
2023-04-23T21:09:29.684Z,13.70
2023-04-23T21:11:57.371Z,13.70
2023-04-23T21:14:24.598Z,13.70
2023-04-23T21:16:53.317Z,13.60
2023-04-23T21:19:20.495Z,13.60
2023-04-23T21:21:47.800Z,13.60
2023-04-23T21:24:15.107Z,13.60
2023-04-23T21:26:43.301Z,13.70
2023-04-23T21:29:10.617Z,13.70
2023-04-23T21:31:44.192Z,13.60
2023-04-23T21:34:11.589Z,13.60
2023-04-23T21:36:38.787Z,13.60
2023-04-23T21:39:06.820Z,13.50
2023-04-23T21:41:34.068Z,13.50
2023-04-23T21:44:01.529Z,13.50
2023-04-23T21:46:30.452Z,13.50
2023-04-23T21:48:58.347Z,13.40
2023-04-23T21:51:26.207Z,13.40
2023-04-23T21:53:53.732Z,13.40
2023-04-23T21:56:21.636Z,13.40
2023-04-23T21:58:49.186Z,13.40
2023-04-23T22:01:17.573Z,13.40
2023-04-23T22:03:46.933Z,13.40
2023-04-23T22:06:15.909Z,13.40
2023-04-23T22:08:46.445Z,13.40
2023-04-23T22:11:14.762Z,13.40
2023-04-23T22:13:42.044Z,13.40
2023-04-23T22:16:24.597Z,13.40
2023-04-23T22:18:55.596Z,13.40
2023-04-23T22:21:23.248Z,13.40
2023-04-23T22:23:51.160Z,13.40
2023-04-23T22:26:18.347Z,13.30
2023-04-23T22:28:45.764Z,13.20
2023-04-23T22:31:13.021Z,13.20
2023-04-23T22:33:40.347Z,13.20
2023-04-23T22:36:07.632Z,13.20
2023-04-23T22:38:35.153Z,13.20
2023-04-23T22:41:02.495Z,13.10
2023-04-23T22:43:29.797Z,13.10
2023-04-23T22:45:57.083Z,13.10
2023-04-23T22:48:24.478Z,13.10
2023-04-23T22:50:52.687Z,13.10
2023-04-23T22:53:20.173Z,13.10
2023-04-23T22:55:47.418Z,13.10
2023-04-23T22:58:14.930Z,13.10
2023-04-23T23:00:42.298Z,13.00
2023-04-23T23:03:09.654Z,13.00
2023-04-23T23:05:36.986Z,13.00
2023-04-23T23:08:04.343Z,13.00
2023-04-23T23:10:31.762Z,13.00
2023-04-23T23:12:59.938Z,13.00
2023-04-23T23:15:27.163Z,13.00
2023-04-23T23:17:54.488Z,12.90
2023-04-23T23:20:21.809Z,12.90
2023-04-23T23:22:48.991Z,12.80
2023-04-23T23:25:16.624Z,12.80
2023-04-23T23:27:43.985Z,12.80
2023-04-23T23:30:11.361Z,12.80
2023-04-23T23:32:38.754Z,12.80
2023-04-23T23:35:06.524Z,12.80
2023-04-23T23:37:34.249Z,12.80
2023-04-23T23:40:01.419Z,12.80
2023-04-23T23:42:28.791Z,12.80
2023-04-23T23:44:56.249Z,12.80
2023-04-23T23:47:23.565Z,12.80
2023-04-23T23:49:50.890Z,12.80
2023-04-23T23:52:18.144Z,12.80
2023-04-23T23:54:45.322Z,12.90
2023-04-23T23:57:12.679Z,12.90
2023-04-23T23:59:39.900Z,12.70
